createdAt,value
2019-03-19T00:02:12.522Z,2.81
2019-03-19T00:04:44.477Z,2.78
2019-03-19T00:07:16.455Z,2.63
2019-03-19T00:09:48.561Z,2.62
2019-03-19T00:12:20.571Z,2.59
2019-03-19T00:14:52.527Z,2.60
2019-03-19T00:17:24.501Z,2.57
2019-03-19T00:19:56.455Z,2.48
2019-03-19T00:22:28.429Z,2.45
2019-03-19T00:25:00.419Z,2.48
2019-03-19T00:27:32.408Z,2.52
2019-03-19T00:30:05.634Z,2.46
2019-03-19T00:32:37.589Z,2.39
2019-03-19T00:35:09.743Z,2.50
2019-03-19T00:37:41.758Z,2.25
2019-03-19T00:40:13.730Z,2.23
2019-03-19T00:42:45.714Z,2.20
2019-03-19T00:45:17.696Z,2.23
2019-03-19T00:47:49.647Z,2.33
2019-03-19T00:50:21.598Z,2.39
2019-03-19T00:52:53.595Z,2.37
2019-03-19T00:55:25.579Z,2.38
2019-03-19T00:57:57.579Z,2.35
2019-03-19T01:00:30.616Z,2.39
2019-03-19T01:03:02.612Z,2.44
2019-03-19T01:05:34.542Z,2.39
2019-03-19T01:08:06.700Z,2.34
2019-03-19T01:10:38.700Z,2.21
2019-03-19T01:13:10.661Z,2.17
2019-03-19T01:15:42.604Z,2.13
2019-03-19T01:18:14.566Z,2.04
2019-03-19T01:20:46.503Z,2.05
2019-03-19T01:23:18.534Z,2.02
2019-03-19T01:25:55.442Z,2.02
2019-03-19T01:28:24.330Z,2.11
2019-03-19T01:30:57.404Z,2.28
2019-03-19T01:33:29.377Z,2.29
2019-03-19T01:36:01.338Z,2.35
2019-03-19T01:38:33.318Z,2.41
2019-03-19T01:41:05.287Z,2.45
2019-03-19T01:43:37.265Z,2.44
2019-03-19T01:46:09.213Z,2.46
2019-03-19T01:48:41.189Z,2.46
2019-03-19T01:51:13.174Z,2.46
2019-03-19T01:53:45.223Z,2.44
2019-03-19T01:56:17.453Z,2.53
2019-03-19T01:58:49.393Z,2.53
2019-03-19T02:01:21.373Z,2.53
2019-03-19T02:03:53.332Z,2.55
2019-03-19T02:06:25.301Z,2.52
2019-03-19T02:08:57.366Z,2.46
2019-03-19T02:11:29.349Z,2.43
2019-03-19T02:14:01.282Z,2.33
2019-03-19T02:16:35.079Z,2.37
2019-03-19T02:19:07.190Z,2.38
2019-03-19T02:21:39.169Z,2.39
2019-03-19T02:24:11.246Z,2.47
2019-03-19T02:26:43.204Z,2.32
2019-03-19T02:29:15.148Z,2.29
2019-03-19T02:31:47.157Z,2.21
2019-03-19T02:34:19.082Z,2.07
2019-03-19T02:36:51.044Z,2.05
2019-03-19T02:39:22.982Z,2.15
2019-03-19T02:41:54.980Z,2.13
2019-03-19T02:44:26.972Z,2.20
2019-03-19T02:46:58.938Z,2.29
2019-03-19T02:49:30.894Z,2.33
2019-03-19T02:52:04.811Z,2.39
2019-03-19T02:54:36.869Z,2.44
2019-03-19T02:57:08.883Z,2.53
2019-03-19T02:59:40.822Z,2.41
2019-03-19T03:02:12.799Z,2.41
2019-03-19T03:04:44.730Z,2.41
2019-03-19T03:07:16.823Z,2.51
2019-03-19T03:09:48.771Z,2.44
2019-03-19T03:12:20.745Z,2.49
2019-03-19T03:14:52.685Z,2.50
2019-03-19T03:17:24.642Z,2.52
2019-03-19T03:19:56.627Z,2.53
2019-03-19T03:22:28.601Z,2.58
2019-03-19T03:25:00.758Z,2.50
2019-03-19T03:27:32.866Z,2.38
2019-03-19T03:30:05.896Z,2.38
2019-03-19T03:32:37.863Z,2.38
2019-03-19T03:35:10.113Z,2.41
2019-03-19T03:37:42.030Z,2.40
2019-03-19T03:40:14.061Z,2.46
2019-03-19T03:42:46.044Z,2.45
2019-03-19T03:45:18.015Z,2.48
2019-03-19T03:47:49.942Z,2.45
2019-03-19T03:50:21.935Z,2.43
2019-03-19T03:52:53.891Z,2.46
2019-03-19T03:55:25.867Z,2.55
2019-03-19T03:57:58.136Z,2.58
2019-03-19T04:00:30.110Z,2.58
2019-03-19T04:03:02.024Z,2.61
2019-03-19T04:05:33.997Z,2.63
2019-03-19T04:08:05.984Z,2.65
2019-03-19T04:10:37.913Z,2.56
2019-03-19T04:13:09.881Z,2.59
2019-03-19T04:15:41.862Z,2.49
2019-03-19T04:18:13.827Z,2.40
2019-03-19T04:20:45.812Z,2.37
2019-03-19T04:23:17.768Z,2.48
2019-03-19T04:25:49.729Z,2.52
2019-03-19T04:28:21.683Z,2.51
2019-03-19T04:30:53.862Z,2.54
2019-03-19T04:33:25.830Z,2.64
2019-03-19T04:35:57.803Z,2.71
2019-03-19T04:38:29.800Z,2.75
2019-03-19T04:41:01.790Z,2.70
2019-03-19T04:43:33.908Z,2.68
2019-03-19T04:46:05.885Z,2.67
2019-03-19T04:48:37.815Z,2.62
2019-03-19T04:51:11.588Z,2.59
2019-03-19T04:53:43.518Z,2.58
2019-03-19T04:56:15.490Z,2.69
2019-03-19T04:58:47.410Z,2.73
2019-03-19T05:01:19.384Z,2.73
2019-03-19T05:03:51.336Z,2.59
2019-03-19T05:06:23.310Z,2.53
2019-03-19T05:08:55.295Z,2.53
2019-03-19T05:11:27.287Z,2.52
2019-03-19T05:13:59.220Z,2.46
2019-03-19T05:16:31.227Z,2.52
2019-03-19T05:19:03.183Z,2.57
2019-03-19T05:21:35.159Z,2.53
2019-03-19T05:24:07.169Z,2.50
2019-03-19T05:26:39.170Z,2.53
2019-03-19T05:29:11.128Z,2.55
2019-03-19T05:31:43.122Z,2.48
2019-03-19T05:34:15.071Z,2.51
2019-03-19T05:36:47.034Z,2.58
2019-03-19T05:39:18.991Z,2.59
2019-03-19T05:41:50.936Z,2.50
2019-03-19T05:44:22.965Z,2.57
2019-03-19T05:46:54.934Z,2.64
2019-03-19T05:49:26.918Z,2.68
2019-03-19T05:51:58.869Z,2.61
2019-03-19T05:54:30.842Z,2.61
2019-03-19T05:57:02.861Z,2.66
2019-03-19T05:59:34.828Z,2.65
2019-03-19T06:02:06.792Z,2.61
2019-03-19T06:04:38.808Z,2.61
2019-03-19T06:07:10.816Z,2.72
2019-03-19T06:09:42.803Z,2.84
2019-03-19T06:12:14.727Z,2.91
2019-03-19T06:14:46.695Z,2.84
2019-03-19T06:17:18.631Z,2.83
2019-03-19T06:19:50.598Z,2.89
2019-03-19T06:22:22.564Z,2.94
2019-03-19T06:24:54.512Z,2.95
2019-03-19T06:27:26.478Z,3.00
2019-03-19T06:29:58.492Z,3.06
2019-03-19T06:32:30.438Z,2.91
2019-03-19T06:35:02.430Z,2.93
2019-03-19T06:37:34.437Z,2.94
2019-03-19T06:40:08.361Z,2.92
2019-03-19T06:42:40.342Z,3.05
2019-03-19T06:45:12.943Z,3.36
2019-03-19T06:47:44.918Z,3.41
2019-03-19T06:50:17.013Z,3.81
2019-03-19T06:52:48.967Z,4.39
2019-03-19T06:55:20.955Z,4.60
2019-03-19T06:58:10.315Z,4.85
2019-03-19T07:00:33.971Z,5.25
2019-03-19T07:03:05.958Z,5.77
2019-03-19T07:05:37.929Z,6.43
2019-03-19T07:08:09.881Z,6.87
2019-03-19T07:10:41.867Z,7.16
2019-03-19T07:13:14.013Z,7.25
2019-03-19T07:15:46.001Z,7.21
2019-03-19T07:18:17.952Z,7.21
2019-03-19T07:20:50.124Z,7.34
2019-03-19T07:23:22.096Z,7.39
2019-03-19T07:25:54.194Z,7.53
2019-03-19T07:28:26.163Z,7.35
2019-03-19T07:30:58.388Z,7.35
2019-03-19T07:33:30.385Z,7.54
2019-03-19T07:36:02.386Z,7.78
2019-03-19T07:38:34.365Z,7.92
2019-03-19T07:41:06.424Z,8.13
2019-03-19T07:43:38.370Z,7.98
2019-03-19T07:46:10.341Z,7.98
2019-03-19T07:48:42.317Z,7.93
2019-03-19T07:51:14.258Z,7.94
2019-03-19T07:53:46.241Z,8.43
2019-03-19T07:56:18.201Z,8.29
2019-03-19T07:58:50.173Z,8.76
2019-03-19T08:01:24.507Z,9.01
2019-03-19T08:03:56.007Z,9.24
2019-03-19T08:06:27.958Z,9.39
2019-03-19T08:08:59.949Z,9.59
2019-03-19T08:11:32.094Z,9.59
2019-03-19T08:14:04.065Z,9.28
2019-03-19T08:16:36.121Z,9.12
2019-03-19T08:19:09.202Z,9.42
2019-03-19T08:21:41.181Z,9.70
2019-03-19T08:24:13.203Z,9.72
2019-03-19T08:26:45.158Z,9.97
2019-03-19T08:29:17.152Z,10.37
2019-03-19T08:31:49.267Z,10.27
2019-03-19T08:34:21.248Z,10.12
2019-03-19T08:36:53.271Z,9.98
2019-03-19T08:39:25.255Z,9.98
2019-03-19T08:41:57.210Z,9.87
2019-03-19T08:44:29.298Z,9.76
2019-03-19T08:47:01.254Z,9.73
2019-03-19T08:49:35.044Z,9.95
2019-03-19T08:52:06.997Z,9.83
2019-03-19T08:54:39.074Z,10.03
2019-03-19T08:57:11.030Z,10.13
2019-03-19T08:59:43.004Z,10.18
2019-03-19T09:02:14.980Z,10.18
2019-03-19T09:04:46.953Z,10.40
2019-03-19T09:07:20.135Z,10.28
2019-03-19T09:09:52.248Z,10.68
2019-03-19T09:12:24.210Z,10.68
2019-03-19T09:14:56.173Z,11.11
2019-03-19T09:17:28.138Z,10.79
2019-03-19T09:20:00.333Z,10.79
2019-03-19T09:22:32.575Z,10.17
2019-03-19T09:25:05.243Z,10.28
2019-03-19T09:27:37.315Z,10.28
2019-03-19T09:30:11.756Z,10.56
2019-03-19T09:32:43.813Z,10.72
2019-03-19T09:35:16.014Z,10.76
2019-03-19T09:37:57.835Z,10.80
2019-03-19T09:40:21.883Z,10.58
2019-03-19T09:42:54.005Z,11.16
2019-03-19T09:45:25.985Z,11.16
2019-03-19T09:47:57.978Z,11.32
2019-03-19T09:50:29.961Z,11.61
2019-03-19T09:53:02.041Z,11.75
2019-03-19T09:55:34.021Z,11.84
2019-03-19T09:58:06.101Z,11.78
2019-03-19T10:00:38.151Z,12.02
2019-03-19T10:03:10.142Z,12.28
2019-03-19T10:05:42.089Z,12.40
2019-03-19T10:08:14.098Z,12.63
2019-03-19T10:10:46.115Z,12.23
2019-03-19T10:13:18.214Z,11.83
2019-03-19T10:15:50.161Z,11.67
2019-03-19T10:18:22.153Z,11.33
2019-03-19T10:20:54.186Z,10.91
2019-03-19T10:23:26.357Z,10.93
2019-03-19T10:25:58.317Z,10.75
2019-03-19T10:28:30.328Z,10.74
2019-03-19T10:31:02.324Z,10.76
2019-03-19T10:33:34.319Z,10.47
2019-03-19T10:36:06.338Z,10.37
2019-03-19T10:38:38.316Z,10.37
2019-03-19T10:41:10.302Z,10.34
2019-03-19T10:43:42.455Z,10.57
2019-03-19T10:46:14.996Z,10.78
2019-03-19T10:48:47.112Z,11.13
2019-03-19T10:51:19.101Z,11.11
2019-03-19T10:53:51.131Z,11.45
2019-03-19T10:56:24.224Z,11.54
2019-03-19T10:58:56.234Z,11.61
2019-03-19T11:01:28.213Z,11.60
2019-03-19T11:04:00.186Z,11.62
2019-03-19T11:06:32.157Z,11.81
2019-03-19T11:09:05.934Z,11.95
2019-03-19T11:11:37.901Z,11.82
2019-03-19T11:14:09.890Z,11.74
2019-03-19T11:16:41.844Z,11.70
2019-03-19T11:19:13.828Z,11.60
2019-03-19T11:21:45.888Z,11.50
2019-03-19T11:24:17.906Z,11.24
2019-03-19T11:26:49.936Z,11.23
2019-03-19T11:29:21.949Z,11.19
2019-03-19T11:31:53.995Z,11.03
2019-03-19T11:34:25.973Z,11.07
2019-03-19T11:36:58.259Z,11.15
2019-03-19T11:39:30.315Z,11.41
2019-03-19T11:42:02.314Z,11.52
2019-03-19T11:44:34.282Z,11.41
2019-03-19T11:47:06.320Z,11.27
2019-03-19T11:49:38.263Z,11.27
2019-03-19T11:52:10.353Z,11.04
2019-03-19T11:54:42.425Z,10.99
2019-03-19T11:57:14.413Z,10.87
2019-03-19T11:59:46.481Z,10.78
2019-03-19T12:02:25.898Z,10.88
2019-03-19T12:04:52.365Z,10.88
2019-03-19T12:07:24.387Z,10.95
2019-03-19T12:09:56.397Z,10.95
2019-03-19T12:12:28.367Z,10.91
2019-03-19T12:15:00.436Z,11.00
2019-03-19T12:17:32.525Z,11.09
2019-03-19T12:20:05.068Z,11.28
2019-03-19T12:22:37.056Z,11.63
2019-03-19T12:25:09.064Z,11.60
2019-03-19T12:27:41.272Z,11.79
2019-03-19T12:30:21.766Z,11.83
2019-03-19T12:32:47.482Z,11.83
2019-03-19T12:35:19.713Z,11.69
2019-03-19T12:37:51.686Z,11.83
2019-03-19T12:40:23.697Z,11.63
2019-03-19T12:42:55.680Z,11.60
2019-03-19T12:45:27.709Z,11.63
2019-03-19T12:47:59.751Z,11.63
2019-03-19T12:50:31.722Z,11.58
2019-03-19T12:53:03.992Z,11.39
2019-03-19T12:55:36.003Z,11.25
2019-03-19T12:58:07.991Z,11.52
2019-03-19T13:00:39.964Z,11.45
2019-03-19T13:03:11.973Z,11.32
2019-03-19T13:05:45.754Z,11.30
2019-03-19T13:08:20.220Z,11.36
2019-03-19T13:10:51.662Z,11.38
2019-03-19T13:13:23.619Z,11.25
2019-03-19T13:15:55.632Z,11.20
2019-03-19T13:18:27.622Z,10.78
2019-03-19T13:20:59.579Z,10.82
2019-03-19T13:23:31.563Z,10.79
2019-03-19T13:26:03.568Z,10.73
2019-03-19T13:28:35.542Z,10.68
2019-03-19T13:31:07.546Z,10.78
2019-03-19T13:33:39.510Z,10.71
2019-03-19T13:36:11.522Z,10.77
2019-03-19T13:38:43.496Z,10.69
2019-03-19T13:41:15.478Z,10.64
2019-03-19T13:43:47.436Z,10.59
2019-03-19T13:46:19.433Z,10.56
2019-03-19T13:48:51.407Z,10.59
2019-03-19T13:51:23.396Z,10.49
2019-03-19T13:53:55.357Z,10.43
2019-03-19T13:56:27.402Z,10.48
2019-03-19T13:58:59.399Z,10.65
2019-03-19T14:01:31.412Z,10.66
2019-03-19T14:04:03.484Z,10.64
2019-03-19T14:06:35.490Z,10.55
2019-03-19T14:09:08.385Z,10.49
2019-03-19T14:11:40.386Z,10.47
2019-03-19T14:14:12.385Z,10.43
2019-03-19T14:16:44.367Z,10.30
2019-03-19T14:19:16.328Z,10.23
2019-03-19T14:21:48.330Z,10.25
2019-03-19T14:24:20.282Z,10.21
2019-03-19T14:26:52.259Z,10.10
2019-03-19T14:29:24.243Z,10.11
2019-03-19T14:31:56.260Z,10.06
2019-03-19T14:34:28.221Z,9.95
2019-03-19T14:37:00.202Z,9.99
2019-03-19T14:39:32.175Z,10.02
2019-03-19T14:42:04.230Z,10.04
2019-03-19T14:44:36.250Z,10.02
2019-03-19T14:47:08.254Z,10.06
2019-03-19T14:49:47.044Z,10.08
2019-03-19T14:52:54.914Z,10.02
2019-03-19T14:55:46.350Z,9.79
2019-03-19T14:58:18.360Z,9.79
2019-03-19T15:00:50.309Z,9.78
2019-03-19T15:03:22.332Z,9.84
2019-03-19T15:05:54.356Z,9.74
2019-03-19T15:08:26.337Z,9.74
2019-03-19T15:10:58.322Z,9.68
2019-03-19T15:13:30.370Z,9.64
2019-03-19T15:16:02.334Z,9.64
2019-03-19T15:18:34.402Z,9.62
2019-03-19T15:21:06.392Z,9.64
2019-03-19T15:23:38.446Z,9.57
2019-03-19T15:26:10.475Z,9.52
2019-03-19T15:28:42.484Z,9.42
2019-03-19T15:31:14.547Z,9.47
2019-03-19T15:33:46.555Z,9.46
2019-03-19T15:36:18.523Z,9.51
2019-03-19T15:38:50.552Z,9.54
2019-03-19T15:41:22.629Z,9.56
2019-03-19T15:43:54.627Z,9.56
2019-03-19T15:46:26.737Z,9.55
2019-03-19T15:49:00.475Z,9.57
2019-03-19T15:51:32.637Z,9.57
2019-03-19T15:54:04.648Z,9.68
2019-03-19T15:56:36.633Z,9.75
2019-03-19T15:59:08.643Z,9.62
2019-03-19T16:01:40.867Z,9.57
2019-03-19T16:04:12.950Z,9.60
2019-03-19T16:06:44.943Z,9.72
2019-03-19T16:09:16.998Z,9.59
2019-03-19T16:11:49.008Z,9.65
2019-03-19T16:14:21.034Z,9.59
2019-03-19T16:16:53.054Z,9.63
2019-03-19T16:19:25.075Z,9.67
2019-03-19T16:21:57.067Z,9.66
2019-03-19T16:24:29.069Z,9.72
2019-03-19T16:27:01.035Z,9.69
2019-03-19T16:29:32.995Z,9.62
2019-03-19T16:32:05.041Z,9.57
2019-03-19T16:34:37.141Z,9.42
2019-03-19T16:37:09.146Z,9.42
2019-03-19T16:39:41.141Z,9.37
2019-03-19T16:42:13.156Z,9.46
2019-03-19T16:44:45.086Z,9.31
2019-03-19T16:47:17.163Z,9.32
2019-03-19T16:49:49.155Z,9.25
2019-03-19T16:52:21.214Z,9.23
2019-03-19T16:54:53.240Z,9.12
2019-03-19T16:57:25.300Z,9.07
2019-03-19T16:59:57.327Z,9.02
2019-03-19T17:02:29.343Z,8.93
2019-03-19T17:05:01.372Z,8.90
2019-03-19T17:07:33.394Z,8.82
2019-03-19T17:10:06.604Z,8.77
2019-03-19T17:12:38.625Z,8.69
2019-03-19T17:15:11.248Z,8.61
2019-03-19T17:17:43.306Z,8.55
2019-03-19T17:20:15.352Z,8.48
2019-03-19T17:22:47.525Z,8.42
2019-03-19T17:25:19.542Z,8.35
2019-03-19T17:27:51.531Z,8.30
2019-03-19T17:30:23.564Z,8.23
2019-03-19T17:32:55.602Z,8.17
2019-03-19T17:35:27.570Z,8.08
2019-03-19T17:37:59.611Z,7.97
2019-03-19T17:40:40.871Z,7.92
2019-03-19T17:43:05.523Z,7.83
2019-03-19T17:45:37.618Z,7.79
2019-03-19T17:48:16.208Z,7.63
2019-03-19T17:50:43.607Z,7.51
2019-03-19T17:53:15.666Z,7.36
2019-03-19T17:55:47.679Z,7.29
2019-03-19T17:58:19.767Z,7.22
2019-03-19T18:00:52.023Z,7.12
2019-03-19T18:03:24.056Z,7.05
2019-03-19T18:05:56.046Z,6.96
2019-03-19T18:08:28.219Z,6.85
2019-03-19T18:11:00.197Z,6.75
2019-03-19T18:13:32.233Z,6.61
2019-03-19T18:16:04.296Z,6.50
2019-03-19T18:18:36.387Z,6.44
2019-03-19T18:21:08.441Z,6.37
2019-03-19T18:23:40.508Z,6.24
2019-03-19T18:26:12.546Z,6.16
2019-03-19T18:28:44.553Z,6.08
2019-03-19T18:31:16.602Z,5.92
2019-03-19T18:33:48.605Z,5.91
2019-03-19T18:36:20.688Z,5.82
2019-03-19T18:38:52.758Z,5.77
2019-03-19T18:41:24.847Z,5.60
2019-03-19T18:43:56.936Z,5.49
2019-03-19T18:46:28.991Z,5.43
2019-03-19T18:49:01.019Z,5.46
2019-03-19T18:51:33.060Z,5.35
2019-03-19T18:54:05.073Z,5.31
2019-03-19T18:56:37.167Z,5.29
2019-03-19T18:59:09.207Z,5.28
2019-03-19T19:01:41.300Z,5.26
2019-03-19T19:04:13.337Z,5.22
2019-03-19T19:06:45.428Z,5.13
2019-03-19T19:09:17.478Z,5.08
2019-03-19T19:11:49.616Z,4.92
2019-03-19T19:14:21.670Z,4.82
2019-03-19T19:16:53.687Z,4.83
2019-03-19T19:19:25.745Z,4.85
2019-03-19T19:21:57.804Z,4.77
2019-03-19T19:24:29.799Z,4.69
2019-03-19T19:27:01.807Z,4.61
2019-03-19T19:29:33.885Z,4.43
2019-03-19T19:32:06.007Z,4.34
2019-03-19T19:34:38.022Z,4.25
2019-03-19T19:37:10.152Z,4.27
2019-03-19T19:39:42.266Z,4.23
2019-03-19T19:42:14.300Z,4.22
2019-03-19T19:44:46.312Z,4.26
2019-03-19T19:47:18.341Z,4.19
2019-03-19T19:49:50.394Z,4.15
2019-03-19T19:52:22.403Z,4.06
2019-03-19T19:54:54.498Z,4.00
2019-03-19T19:57:26.542Z,3.97
2019-03-19T19:59:58.810Z,3.89
2019-03-19T20:02:30.879Z,3.89
2019-03-19T20:05:03.803Z,3.85
2019-03-19T20:07:36.027Z,3.74
2019-03-19T20:10:10.894Z,3.55
2019-03-19T20:12:42.910Z,3.50
2019-03-19T20:15:14.979Z,3.38
2019-03-19T20:17:46.979Z,3.34
2019-03-19T20:20:19.041Z,3.23
2019-03-19T20:22:51.122Z,3.26
2019-03-19T20:25:23.162Z,3.26
2019-03-19T20:27:55.301Z,3.23
2019-03-19T20:30:27.395Z,3.23
2019-03-19T20:32:59.479Z,3.16
2019-03-19T20:35:31.532Z,3.15
2019-03-19T20:38:03.614Z,3.01
2019-03-19T20:40:35.710Z,3.05
2019-03-19T20:43:07.783Z,2.89
2019-03-19T20:45:39.827Z,2.94
2019-03-19T20:48:11.857Z,2.96
2019-03-19T20:50:43.902Z,2.94
2019-03-19T20:53:15.943Z,2.91
2019-03-19T20:55:47.946Z,2.87
2019-03-19T20:58:19.958Z,2.90
2019-03-19T21:00:52.019Z,2.86
2019-03-19T21:03:24.142Z,2.92
2019-03-19T21:05:56.123Z,2.84
2019-03-19T21:08:28.161Z,2.81
2019-03-19T21:11:00.172Z,2.81
2019-03-19T21:13:32.180Z,2.82
2019-03-19T21:16:04.234Z,2.70
2019-03-19T21:18:36.208Z,2.68
2019-03-19T21:21:08.221Z,2.65
2019-03-19T21:23:40.232Z,2.67
2019-03-19T21:26:12.280Z,2.61
2019-03-19T21:28:44.277Z,2.53
2019-03-19T21:31:16.386Z,2.49
2019-03-19T21:33:51.371Z,2.48
2019-03-19T21:36:22.329Z,2.41
2019-03-19T21:38:54.343Z,2.34
2019-03-19T21:41:26.355Z,2.27
2019-03-19T21:43:58.411Z,2.21
2019-03-19T21:46:30.572Z,2.12
2019-03-19T21:49:02.638Z,2.08
2019-03-19T21:51:34.620Z,2.05
2019-03-19T21:54:06.691Z,2.05
2019-03-19T21:56:38.642Z,2.07
2019-03-19T21:59:10.655Z,1.98
2019-03-19T22:01:42.655Z,1.97
2019-03-19T22:04:14.681Z,2.00
2019-03-19T22:06:46.844Z,2.07
2019-03-19T22:09:18.851Z,2.07
2019-03-19T22:11:50.856Z,2.08
2019-03-19T22:14:22.890Z,2.08
2019-03-19T22:16:57.634Z,2.05
2019-03-19T22:19:29.635Z,2.04
2019-03-19T22:22:01.605Z,1.98
2019-03-19T22:24:33.634Z,1.93
2019-03-19T22:27:05.599Z,1.88
2019-03-19T22:29:37.658Z,1.91
2019-03-19T22:32:09.666Z,1.92
2019-03-19T22:34:41.678Z,1.85
2019-03-19T22:37:13.626Z,1.85
2019-03-19T22:39:45.654Z,1.85
2019-03-19T22:42:17.621Z,1.86
2019-03-19T22:44:49.632Z,1.87
2019-03-19T22:47:21.599Z,1.85
2019-03-19T22:49:53.599Z,1.71
2019-03-19T22:52:25.566Z,1.68
2019-03-19T22:54:57.576Z,1.72
2019-03-19T22:57:29.589Z,1.76
2019-03-19T23:00:01.584Z,1.66
2019-03-19T23:02:33.778Z,1.62
2019-03-19T23:05:05.768Z,1.62
2019-03-19T23:07:37.784Z,1.46
2019-03-19T23:10:09.876Z,1.33
2019-03-19T23:12:41.874Z,1.20
2019-03-19T23:15:13.951Z,1.17
2019-03-19T23:17:45.984Z,1.15
2019-03-19T23:20:18.027Z,1.18
2019-03-19T23:22:50.027Z,1.24
2019-03-19T23:25:22.001Z,1.12
2019-03-19T23:27:54.024Z,1.09
2019-03-19T23:30:25.995Z,1.15
2019-03-19T23:32:58.046Z,1.17
2019-03-19T23:35:30.109Z,1.07
2019-03-19T23:38:02.116Z,1.06
2019-03-19T23:40:34.191Z,1.11
2019-03-19T23:43:06.186Z,1.10
2019-03-19T23:45:38.140Z,1.12
2019-03-19T23:48:10.212Z,1.18
2019-03-19T23:50:42.195Z,1.17
2019-03-19T23:53:14.223Z,1.12
2019-03-19T23:55:46.158Z,1.03
2019-03-19T23:58:18.151Z,0.93
